Terminal Aerodrome Forecast
Issued by NWS

Home | Current Version | Previous Version | Text Only | Print | Product List | Glossary On
Versions: 1 2 3 4 5 6 7 8 9 10 11 12 13 14 15 16 17 18 19 20
000
FTUS43 KICT 252004 AAA
TAFHUT
TAF AMD
KHUT 252004Z 2520/2618 01011KT P6SM SCT020 BKN035
      TEMPO 2520/2522 BKN025
     FM252300 03007KT P6SM VCTS BKN035CB
     FM260600 11008KT 5SM -TSRA BKN035CB
     FM261100 14008KT P6SM VCTS SCT030 BKN035CB
     FM261500 15010KT P6SM SCT030 BKN060=

USA.gov is the U.S. government's official web portal to all federal, state and local government web resources and services.